sensor_id;sensor_type;location;lat;lon;timestamp;P1;durP1;ratioP1;P2;durP2;ratioP2
19213;SDS011;9741;51.020;5.304;2022-10-31T00:00:54;1.60;;;1.27;;
19213;SDS011;9741;51.020;5.304;2022-10-31T00:03:22;1.37;;;1.13;;
19213;SDS011;9741;51.020;5.304;2022-10-31T00:05:51;1.73;;;1.63;;
19213;SDS011;9741;51.020;5.304;2022-10-31T00:08:18;3.73;;;1.97;;
19213;SDS011;9741;51.020;5.304;2022-10-31T00:10:45;1.73;;;1.60;;
19213;SDS011;9741;51.020;5.304;2022-10-31T00:13:13;5.30;;;1.87;;
19213;SDS011;9741;51.020;5.304;2022-10-31T00:15:42;3.67;;;2.37;;
19213;SDS011;9741;51.020;5.304;2022-10-31T00:18:09;2.00;;;1.60;;
19213;SDS011;9741;51.020;5.304;2022-10-31T00:20:37;3.80;;;2.63;;
19213;SDS011;9741;51.020;5.304;2022-10-31T00:23:05;4.80;;;2.80;;
19213;SDS011;9741;51.020;5.304;2022-10-31T00:25:33;1.73;;;1.63;;
19213;SDS011;9741;51.020;5.304;2022-10-31T00:28:01;3.43;;;2.30;;
19213;SDS011;9741;51.020;5.304;2022-10-31T00:30:28;2.20;;;1.17;;
19213;SDS011;9741;51.020;5.304;2022-10-31T00:32:56;3.17;;;1.97;;
19213;SDS011;9741;51.020;5.304;2022-10-31T00:35:23;2.47;;;1.83;;
19213;SDS011;9741;51.020;5.304;2022-10-31T00:37:51;1.90;;;1.60;;
19213;SDS011;9741;51.020;5.304;2022-10-31T00:40:19;3.73;;;1.70;;
19213;SDS011;9741;51.020;5.304;2022-10-31T00:42:46;1.80;;;1.67;;
19213;SDS011;9741;51.020;5.304;2022-10-31T00:45:13;4.57;;;2.03;;
19213;SDS011;9741;51.020;5.304;2022-10-31T00:47:40;3.03;;;1.90;;
19213;SDS011;9741;51.020;5.304;2022-10-31T00:50:08;2.00;;;1.30;;
19213;SDS011;9741;51.020;5.304;2022-10-31T00:52:35;1.73;;;1.10;;
19213;SDS011;9741;51.020;5.304;2022-10-31T00:55:03;1.50;;;1.40;;
19213;SDS011;9741;51.020;5.304;2022-10-31T00:57:30;3.60;;;1.83;;
19213;SDS011;9741;51.020;5.304;2022-10-31T00:59:57;5.00;;;1.87;;
19213;SDS011;9741;51.020;5.304;2022-10-31T01:02:24;3.13;;;1.83;;
19213;SDS011;9741;51.020;5.304;2022-10-31T01:04:51;3.83;;;2.30;;
19213;SDS011;9741;51.020;5.304;2022-10-31T01:07:19;1.30;;;1.20;;
19213;SDS011;9741;51.020;5.304;2022-10-31T01:09:46;2.50;;;2.03;;
19213;SDS011;9741;51.020;5.304;2022-10-31T01:12:13;4.00;;;1.50;;
19213;SDS011;9741;51.020;5.304;2022-10-31T01:14:42;2.37;;;1.47;;
19213;SDS011;9741;51.020;5.304;2022-10-31T01:17:10;2.50;;;1.93;;
19213;SDS011;9741;51.020;5.304;2022-10-31T01:19:37;1.93;;;1.53;;
19213;SDS011;9741;51.020;5.304;2022-10-31T01:22:05;2.00;;;1.80;;
19213;SDS011;9741;51.020;5.304;2022-10-31T01:24:33;2.10;;;1.80;;
19213;SDS011;9741;51.020;5.304;2022-10-31T01:27:00;3.33;;;2.13;;
19213;SDS011;9741;51.020;5.304;2022-10-31T01:29:27;3.20;;;1.90;;
19213;SDS011;9741;51.020;5.304;2022-10-31T01:31:54;3.13;;;1.93;;
19213;SDS011;9741;51.020;5.304;2022-10-31T01:34:21;3.10;;;1.87;;
19213;SDS011;9741;51.020;5.304;2022-10-31T01:36:48;2.30;;;1.60;;
19213;SDS011;9741;51.020;5.304;2022-10-31T01:39:17;1.37;;;1.27;;
19213;SDS011;9741;51.020;5.304;2022-10-31T01:41:47;1.33;;;1.20;;
19213;SDS011;9741;51.020;5.304;2022-10-31T01:47:39;0.87;;;0.70;;
19213;SDS011;9741;51.020;5.304;2022-10-31T01:50:13;1.20;;;1.20;;
19213;SDS011;9741;51.020;5.304;2022-10-31T01:52:49;1.77;;;1.67;;
19213;SDS011;9741;51.020;5.304;2022-10-31T01:55:18;2.23;;;1.97;;
19213;SDS011;9741;51.020;5.304;2022-10-31T01:57:51;4.10;;;2.40;;
19213;SDS011;9741;51.020;5.304;2022-10-31T02:00:21;2.50;;;2.27;;
19213;SDS011;9741;51.020;5.304;2022-10-31T02:02:49;3.30;;;1.57;;
19213;SDS011;9741;51.020;5.304;2022-10-31T02:05:17;2.80;;;1.67;;
19213;SDS011;9741;51.020;5.304;2022-10-31T02:07:48;1.53;;;1.43;;
19213;SDS011;9741;51.020;5.304;2022-10-31T02:10:21;1.90;;;1.60;;
19213;SDS011;9741;51.020;5.304;2022-10-31T02:12:51;10.70;;;1.80;;
19213;SDS011;9741;51.020;5.304;2022-10-31T02:15:20;14.17;;;2.13;;
19213;SDS011;9741;51.020;5.304;2022-10-31T02:17:47;2.33;;;2.13;;
19213;SDS011;9741;51.020;5.304;2022-10-31T02:20:15;1.00;;;1.00;;
19213;SDS011;9741;51.020;5.304;2022-10-31T02:22:50;1.30;;;1.20;;
19213;SDS011;9741;51.020;5.304;2022-10-31T02:25:44;14.43;;;1.87;;
19213;SDS011;9741;51.020;5.304;2022-10-31T02:28:28;3.33;;;1.47;;
19213;SDS011;9741;51.020;5.304;2022-10-31T02:31:12;2.37;;;1.70;;
19213;SDS011;9741;51.020;5.304;2022-10-31T02:33:48;1.77;;;1.53;;
19213;SDS011;9741;51.020;5.304;2022-10-31T02:36:20;2.73;;;2.07;;
19213;SDS011;9741;51.020;5.304;2022-10-31T02:38:55;2.57;;;1.90;;
19213;SDS011;9741;51.020;5.304;2022-10-31T02:41:31;2.07;;;1.73;;
19213;SDS011;9741;51.020;5.304;2022-10-31T02:44:05;3.57;;;1.97;;
19213;SDS011;9741;51.020;5.304;2022-10-31T02:46:42;3.63;;;2.67;;
19213;SDS011;9741;51.020;5.304;2022-10-31T02:49:15;2.87;;;1.73;;
19213;SDS011;9741;51.020;5.304;2022-10-31T02:51:49;4.30;;;2.57;;
19213;SDS011;9741;51.020;5.304;2022-10-31T02:54:18;3.17;;;1.37;;
19213;SDS011;9741;51.020;5.304;2022-10-31T02:56:46;1.73;;;1.63;;
19213;SDS011;9741;51.020;5.304;2022-10-31T02:59:14;4.53;;;1.83;;
19213;SDS011;9741;51.020;5.304;2022-10-31T03:01:46;0.87;;;0.80;;
19213;SDS011;9741;51.020;5.304;2022-10-31T03:04:52;5.07;;;1.90;;
19213;SDS011;9741;51.020;5.304;2022-10-31T03:07:47;2.67;;;1.90;;
19213;SDS011;9741;51.020;5.304;2022-10-31T03:10:24;1.40;;;1.30;;
19213;SDS011;9741;51.020;5.304;2022-10-31T03:13:00;3.33;;;1.43;;
19213;SDS011;9741;51.020;5.304;2022-10-31T03:15:33;1.83;;;1.27;;
19213;SDS011;9741;51.020;5.304;2022-10-31T03:18:06;1.60;;;1.47;;
19213;SDS011;9741;51.020;5.304;2022-10-31T03:20:36;0.83;;;0.83;;
19213;SDS011;9741;51.020;5.304;2022-10-31T03:23:06;1.83;;;1.40;;
19213;SDS011;9741;51.020;5.304;2022-10-31T03:25:37;2.33;;;1.13;;
19213;SDS011;9741;51.020;5.304;2022-10-31T03:28:05;2.27;;;1.30;;
19213;SDS011;9741;51.020;5.304;2022-10-31T03:30:35;2.80;;;1.93;;
19213;SDS011;9741;51.020;5.304;2022-10-31T03:33:09;3.40;;;1.30;;
19213;SDS011;9741;51.020;5.304;2022-10-31T03:35:38;2.27;;;1.17;;
19213;SDS011;9741;51.020;5.304;2022-10-31T03:38:08;1.80;;;1.60;;
19213;SDS011;9741;51.020;5.304;2022-10-31T03:40:36;1.87;;;1.67;;
19213;SDS011;9741;51.020;5.304;2022-10-31T03:43:08;3.33;;;1.70;;
19213;SDS011;9741;51.020;5.304;2022-10-31T03:45:40;2.53;;;2.17;;
19213;SDS011;9741;51.020;5.304;2022-10-31T03:48:11;2.90;;;1.80;;
19213;SDS011;9741;51.020;5.304;2022-10-31T03:50:41;8.23;;;2.23;;
19213;SDS011;9741;51.020;5.304;2022-10-31T03:53:13;3.50;;;1.77;;
19213;SDS011;9741;51.020;5.304;2022-10-31T03:55:46;2.07;;;1.23;;
19213;SDS011;9741;51.020;5.304;2022-10-31T03:58:19;1.60;;;1.50;;
19213;SDS011;9741;51.020;5.304;2022-10-31T04:00:50;2.63;;;1.73;;
19213;SDS011;9741;51.020;5.304;2022-10-31T04:03:22;2.60;;;2.03;;
19213;SDS011;9741;51.020;5.304;2022-10-31T04:05:52;4.87;;;2.60;;
19213;SDS011;9741;51.020;5.304;2022-10-31T04:08:23;1.77;;;1.67;;
19213;SDS011;9741;51.020;5.304;2022-10-31T04:10:54;3.10;;;1.70;;
19213;SDS011;9741;51.020;5.304;2022-10-31T04:13:24;1.57;;;1.47;;
19213;SDS011;9741;51.020;5.304;2022-10-31T04:15:53;2.30;;;1.70;;
19213;SDS011;9741;51.020;5.304;2022-10-31T04:18:23;2.00;;;1.67;;
19213;SDS011;9741;51.020;5.304;2022-10-31T04:20:59;3.27;;;2.03;;
19213;SDS011;9741;51.020;5.304;2022-10-31T04:23:27;2.00;;;1.30;;
19213;SDS011;9741;51.020;5.304;2022-10-31T04:25:54;2.97;;;2.17;;
19213;SDS011;9741;51.020;5.304;2022-10-31T04:28:22;3.30;;;1.30;;
19213;SDS011;9741;51.020;5.304;2022-10-31T04:30:49;5.90;;;1.37;;
19213;SDS011;9741;51.020;5.304;2022-10-31T04:33:16;8.37;;;1.20;;
19213;SDS011;9741;51.020;5.304;2022-10-31T04:35:45;2.37;;;1.57;;
19213;SDS011;9741;51.020;5.304;2022-10-31T04:38:12;4.77;;;2.10;;
19213;SDS011;9741;51.020;5.304;2022-10-31T04:40:39;1.20;;;1.10;;
19213;SDS011;9741;51.020;5.304;2022-10-31T04:43:06;1.93;;;1.20;;
19213;SDS011;9741;51.020;5.304;2022-10-31T04:45:33;1.87;;;1.67;;
19213;SDS011;9741;51.020;5.304;2022-10-31T04:48:00;1.47;;;1.13;;
19213;SDS011;9741;51.020;5.304;2022-10-31T04:50:27;3.97;;;1.87;;
19213;SDS011;9741;51.020;5.304;2022-10-31T04:52:55;0.83;;;0.83;;
19213;SDS011;9741;51.020;5.304;2022-10-31T04:55:22;1.93;;;1.67;;
19213;SDS011;9741;51.020;5.304;2022-10-31T04:57:49;2.80;;;2.30;;
19213;SDS011;9741;51.020;5.304;2022-10-31T05:00:17;2.23;;;2.00;;
19213;SDS011;9741;51.020;5.304;2022-10-31T05:02:46;2.07;;;1.77;;
19213;SDS011;9741;51.020;5.304;2022-10-31T05:05:15;2.27;;;1.50;;
19213;SDS011;9741;51.020;5.304;2022-10-31T05:07:43;1.97;;;1.43;;
19213;SDS011;9741;51.020;5.304;2022-10-31T05:10:13;8.00;;;3.30;;
19213;SDS011;9741;51.020;5.304;2022-10-31T05:12:45;2.87;;;2.03;;
19213;SDS011;9741;51.020;5.304;2022-10-31T05:15:13;1.30;;;1.20;;
19213;SDS011;9741;51.020;5.304;2022-10-31T05:17:41;8.53;;;2.13;;
19213;SDS011;9741;51.020;5.304;2022-10-31T05:20:08;2.00;;;1.50;;
19213;SDS011;9741;51.020;5.304;2022-10-31T05:22:35;2.23;;;1.57;;
19213;SDS011;9741;51.020;5.304;2022-10-31T05:25:03;2.40;;;1.60;;
19213;SDS011;9741;51.020;5.304;2022-10-31T05:27:31;6.67;;;1.13;;
19213;SDS011;9741;51.020;5.304;2022-10-31T05:29:58;1.40;;;1.30;;
19213;SDS011;9741;51.020;5.304;2022-10-31T05:32:25;3.47;;;0.90;;
19213;SDS011;9741;51.020;5.304;2022-10-31T05:34:52;1.60;;;1.50;;
19213;SDS011;9741;51.020;5.304;2022-10-31T05:37:19;1.70;;;1.33;;
19213;SDS011;9741;51.020;5.304;2022-10-31T05:39:46;1.40;;;1.17;;
19213;SDS011;9741;51.020;5.304;2022-10-31T05:42:13;2.67;;;1.67;;
19213;SDS011;9741;51.020;5.304;2022-10-31T05:44:42;1.20;;;1.00;;
19213;SDS011;9741;51.020;5.304;2022-10-31T05:47:09;0.93;;;0.90;;
19213;SDS011;9741;51.020;5.304;2022-10-31T05:49:36;0.90;;;0.90;;
19213;SDS011;9741;51.020;5.304;2022-10-31T05:52:03;0.67;;;0.67;;
19213;SDS011;9741;51.020;5.304;2022-10-31T05:54:30;1.63;;;1.40;;
19213;SDS011;9741;51.020;5.304;2022-10-31T05:56:57;2.10;;;1.30;;
19213;SDS011;9741;51.020;5.304;2022-10-31T05:59:24;0.80;;;0.80;;
19213;SDS011;9741;51.020;5.304;2022-10-31T06:01:52;2.03;;;1.13;;
19213;SDS011;9741;51.020;5.304;2022-10-31T06:04:19;0.93;;;0.90;;
19213;SDS011;9741;51.020;5.304;2022-10-31T06:06:46;17.10;;;1.37;;
19213;SDS011;9741;51.020;5.304;2022-10-31T06:09:13;1.10;;;1.07;;
19213;SDS011;9741;51.020;5.304;2022-10-31T06:11:40;1.87;;;1.40;;
19213;SDS011;9741;51.020;5.304;2022-10-31T06:14:07;1.53;;;1.40;;
19213;SDS011;9741;51.020;5.304;2022-10-31T06:16:35;3.60;;;1.93;;
19213;SDS011;9741;51.020;5.304;2022-10-31T06:19:03;3.07;;;2.07;;
19213;SDS011;9741;51.020;5.304;2022-10-31T06:21:30;1.53;;;1.43;;
19213;SDS011;9741;51.020;5.304;2022-10-31T06:23:57;1.50;;;1.00;;
19213;SDS011;9741;51.020;5.304;2022-10-31T06:26:24;3.20;;;1.77;;
19213;SDS011;9741;51.020;5.304;2022-10-31T06:28:51;1.90;;;1.47;;
19213;SDS011;9741;51.020;5.304;2022-10-31T06:31:18;4.50;;;1.67;;
19213;SDS011;9741;51.020;5.304;2022-10-31T06:33:45;1.50;;;1.40;;
19213;SDS011;9741;51.020;5.304;2022-10-31T06:36:14;1.90;;;1.53;;
19213;SDS011;9741;51.020;5.304;2022-10-31T06:38:41;1.63;;;1.53;;
19213;SDS011;9741;51.020;5.304;2022-10-31T06:41:08;4.17;;;1.60;;
19213;SDS011;9741;51.020;5.304;2022-10-31T06:43:35;1.07;;;0.90;;
19213;SDS011;9741;51.020;5.304;2022-10-31T06:46:02;1.30;;;1.03;;
19213;SDS011;9741;51.020;5.304;2022-10-31T06:48:30;2.43;;;1.20;;
19213;SDS011;9741;51.020;5.304;2022-10-31T06:51:01;1.30;;;1.03;;
19213;SDS011;9741;51.020;5.304;2022-10-31T06:53:29;1.27;;;1.07;;
19213;SDS011;9741;51.020;5.304;2022-10-31T06:55:56;2.17;;;1.80;;
19213;SDS011;9741;51.020;5.304;2022-10-31T06:58:23;2.00;;;1.80;;
19213;SDS011;9741;51.020;5.304;2022-10-31T07:00:50;2.57;;;1.57;;
19213;SDS011;9741;51.020;5.304;2022-10-31T07:03:17;2.53;;;1.83;;
19213;SDS011;9741;51.020;5.304;2022-10-31T07:05:45;2.23;;;1.83;;
19213;SDS011;9741;51.020;5.304;2022-10-31T07:08:13;2.47;;;1.60;;
19213;SDS011;9741;51.020;5.304;2022-10-31T07:10:43;2.10;;;1.70;;
19213;SDS011;9741;51.020;5.304;2022-10-31T07:13:18;1.40;;;1.30;;
19213;SDS011;9741;51.020;5.304;2022-10-31T07:15:50;1.63;;;1.53;;
19213;SDS011;9741;51.020;5.304;2022-10-31T07:18:18;2.17;;;1.50;;
19213;SDS011;9741;51.020;5.304;2022-10-31T07:20:45;2.27;;;1.20;;
19213;SDS011;9741;51.020;5.304;2022-10-31T07:23:13;1.53;;;1.43;;
19213;SDS011;9741;51.020;5.304;2022-10-31T07:25:40;1.20;;;1.10;;
19213;SDS011;9741;51.020;5.304;2022-10-31T07:28:08;4.87;;;1.87;;
19213;SDS011;9741;51.020;5.304;2022-10-31T07:30:36;1.53;;;1.43;;
19213;SDS011;9741;51.020;5.304;2022-10-31T07:33:06;4.67;;;2.30;;
19213;SDS011;9741;51.020;5.304;2022-10-31T07:35:34;3.87;;;2.07;;
19213;SDS011;9741;51.020;5.304;2022-10-31T07:38:07;2.77;;;2.13;;
19213;SDS011;9741;51.020;5.304;2022-10-31T07:40:36;2.60;;;2.27;;
19213;SDS011;9741;51.020;5.304;2022-10-31T07:43:04;2.17;;;1.97;;
19213;SDS011;9741;51.020;5.304;2022-10-31T07:45:32;2.30;;;1.47;;
19213;SDS011;9741;51.020;5.304;2022-10-31T07:48:00;3.03;;;1.73;;
19213;SDS011;9741;51.020;5.304;2022-10-31T07:50:29;3.97;;;1.80;;
19213;SDS011;9741;51.020;5.304;2022-10-31T07:52:59;4.17;;;1.97;;
19213;SDS011;9741;51.020;5.304;2022-10-31T07:55:26;2.30;;;2.10;;
19213;SDS011;9741;51.020;5.304;2022-10-31T07:57:55;2.07;;;1.87;;
19213;SDS011;9741;51.020;5.304;2022-10-31T08:00:23;3.20;;;1.90;;
19213;SDS011;9741;51.020;5.304;2022-10-31T08:02:57;1.77;;;1.40;;
19213;SDS011;9741;51.020;5.304;2022-10-31T08:05:25;2.20;;;1.83;;
19213;SDS011;9741;51.020;5.304;2022-10-31T08:07:52;4.87;;;2.73;;
19213;SDS011;9741;51.020;5.304;2022-10-31T08:10:21;2.60;;;2.10;;
19213;SDS011;9741;51.020;5.304;2022-10-31T08:12:54;2.83;;;1.77;;
19213;SDS011;9741;51.020;5.304;2022-10-31T08:15:23;7.87;;;1.80;;
19213;SDS011;9741;51.020;5.304;2022-10-31T08:17:51;3.70;;;2.17;;
19213;SDS011;9741;51.020;5.304;2022-10-31T08:20:21;4.20;;;1.80;;
19213;SDS011;9741;51.020;5.304;2022-10-31T08:22:55;1.90;;;1.70;;
19213;SDS011;9741;51.020;5.304;2022-10-31T08:25:24;1.80;;;1.40;;
19213;SDS011;9741;51.020;5.304;2022-10-31T08:27:55;5.23;;;2.77;;
19213;SDS011;9741;51.020;5.304;2022-10-31T08:30:23;2.40;;;1.93;;
19213;SDS011;9741;51.020;5.304;2022-10-31T08:33:01;6.27;;;2.00;;
19213;SDS011;9741;51.020;5.304;2022-10-31T08:35:33;3.53;;;2.13;;
19213;SDS011;9741;51.020;5.304;2022-10-31T08:38:01;9.90;;;3.83;;
19213;SDS011;9741;51.020;5.304;2022-10-31T08:40:30;6.63;;;3.73;;
19213;SDS011;9741;51.020;5.304;2022-10-31T08:42:59;3.03;;;2.60;;
19213;SDS011;9741;51.020;5.304;2022-10-31T08:45:28;4.83;;;3.20;;
19213;SDS011;9741;51.020;5.304;2022-10-31T08:47:57;3.83;;;2.83;;
19213;SDS011;9741;51.020;5.304;2022-10-31T08:50:25;2.70;;;2.37;;
19213;SDS011;9741;51.020;5.304;2022-10-31T08:52:58;3.40;;;2.90;;
19213;SDS011;9741;51.020;5.304;2022-10-31T08:55:26;9.10;;;3.30;;
19213;SDS011;9741;51.020;5.304;2022-10-31T08:57:54;3.27;;;2.87;;
19213;SDS011;9741;51.020;5.304;2022-10-31T09:00:22;4.17;;;2.57;;
19213;SDS011;9741;51.020;5.304;2022-10-31T09:02:54;5.57;;;3.00;;
19213;SDS011;9741;51.020;5.304;2022-10-31T09:05:21;5.17;;;4.07;;
19213;SDS011;9741;51.020;5.304;2022-10-31T09:07:49;4.57;;;3.07;;
19213;SDS011;9741;51.020;5.304;2022-10-31T09:10:17;7.30;;;3.67;;
19213;SDS011;9741;51.020;5.304;2022-10-31T09:12:44;2.97;;;2.70;;
19213;SDS011;9741;51.020;5.304;2022-10-31T09:15:11;6.53;;;3.00;;
19213;SDS011;9741;51.020;5.304;2022-10-31T09:17:38;3.43;;;2.47;;
19213;SDS011;9741;51.020;5.304;2022-10-31T09:20:05;6.83;;;3.07;;
19213;SDS011;9741;51.020;5.304;2022-10-31T09:22:32;6.07;;;3.07;;
19213;SDS011;9741;51.020;5.304;2022-10-31T09:24:59;5.70;;;3.37;;
19213;SDS011;9741;51.020;5.304;2022-10-31T09:27:28;6.50;;;3.87;;
19213;SDS011;9741;51.020;5.304;2022-10-31T09:29:55;3.50;;;2.53;;
19213;SDS011;9741;51.020;5.304;2022-10-31T09:32:22;4.57;;;3.08;;
19213;SDS011;9741;51.020;5.304;2022-10-31T09:34:49;4.50;;;2.58;;
19213;SDS011;9741;51.020;5.304;2022-10-31T09:37:16;5.60;;;3.50;;
19213;SDS011;9741;51.020;5.304;2022-10-31T09:39:43;7.07;;;4.07;;
19213;SDS011;9741;51.020;5.304;2022-10-31T09:42:22;7.25;;;3.55;;
19213;SDS011;9741;51.020;5.304;2022-10-31T09:45:02;5.57;;;3.45;;
19213;SDS011;9741;51.020;5.304;2022-10-31T09:47:37;4.47;;;2.85;;
19213;SDS011;9741;51.020;5.304;2022-10-31T09:50:14;13.65;;;3.35;;
19213;SDS011;9741;51.020;5.304;2022-10-31T09:52:47;7.82;;;3.50;;
19213;SDS011;9741;51.020;5.304;2022-10-31T09:55:30;3.35;;;3.00;;
19213;SDS011;9741;51.020;5.304;2022-10-31T09:58:18;4.32;;;2.55;;
19213;SDS011;9741;51.020;5.304;2022-10-31T10:00:47;5.38;;;3.55;;
19213;SDS011;9741;51.020;5.304;2022-10-31T10:03:18;4.40;;;2.70;;
19213;SDS011;9741;51.020;5.304;2022-10-31T10:05:54;5.65;;;3.45;;
19213;SDS011;9741;51.020;5.304;2022-10-31T10:08:31;8.43;;;4.05;;
19213;SDS011;9741;51.020;5.304;2022-10-31T10:11:04;7.07;;;3.53;;
19213;SDS011;9741;51.020;5.304;2022-10-31T10:13:51;3.63;;;2.42;;
19213;SDS011;9741;51.020;5.304;2022-10-31T10:16:31;8.07;;;3.83;;
19213;SDS011;9741;51.020;5.304;2022-10-31T10:19:15;9.25;;;4.00;;
19213;SDS011;9741;51.020;5.304;2022-10-31T10:21:56;7.38;;;3.97;;
19213;SDS011;9741;51.020;5.304;2022-10-31T10:24:33;9.20;;;5.00;;
19213;SDS011;9741;51.020;5.304;2022-10-31T10:27:14;6.10;;;3.63;;
19213;SDS011;9741;51.020;5.304;2022-10-31T10:29:52;4.95;;;3.28;;
19213;SDS011;9741;51.020;5.304;2022-10-31T10:32:30;5.90;;;3.28;;
19213;SDS011;9741;51.020;5.304;2022-10-31T10:35:11;4.38;;;3.22;;
19213;SDS011;9741;51.020;5.304;2022-10-31T10:37:46;9.75;;;2.78;;
19213;SDS011;9741;51.020;5.304;2022-10-31T10:40:19;7.00;;;3.40;;
19213;SDS011;9741;51.020;5.304;2022-10-31T10:42:52;2.95;;;2.65;;
19213;SDS011;9741;51.020;5.304;2022-10-31T10:45:43;9.73;;;3.70;;
19213;SDS011;9741;51.020;5.304;2022-10-31T10:48:30;7.05;;;3.40;;
19213;SDS011;9741;51.020;5.304;2022-10-31T10:51:08;4.30;;;2.88;;
19213;SDS011;9741;51.020;5.304;2022-10-31T10:53:55;7.97;;;3.35;;
19213;SDS011;9741;51.020;5.304;2022-10-31T10:56:51;7.90;;;3.83;;
19213;SDS011;9741;51.020;5.304;2022-10-31T10:59:26;7.20;;;3.47;;
19213;SDS011;9741;51.020;5.304;2022-10-31T11:01:56;6.93;;;2.60;;
19213;SDS011;9741;51.020;5.304;2022-10-31T11:04:27;8.88;;;4.40;;
19213;SDS011;9741;51.020;5.304;2022-10-31T11:06:57;7.30;;;4.20;;
19213;SDS011;9741;51.020;5.304;2022-10-31T11:09:25;4.30;;;2.78;;
19213;SDS011;9741;51.020;5.304;2022-10-31T11:11:52;5.93;;;2.97;;
19213;SDS011;9741;51.020;5.304;2022-10-31T11:14:21;7.00;;;2.90;;
19213;SDS011;9741;51.020;5.304;2022-10-31T11:16:49;2.20;;;2.00;;
19213;SDS011;9741;51.020;5.304;2022-10-31T11:19:21;6.72;;;2.88;;
19213;SDS011;9741;51.020;5.304;2022-10-31T11:21:51;8.35;;;3.92;;
19213;SDS011;9741;51.020;5.304;2022-10-31T11:24:20;14.13;;;4.20;;
19213;SDS011;9741;51.020;5.304;2022-10-31T11:26:48;10.82;;;3.20;;
19213;SDS011;9741;51.020;5.304;2022-10-31T11:29:20;7.43;;;2.83;;
19213;SDS011;9741;51.020;5.304;2022-10-31T11:31:51;7.45;;;3.30;;
19213;SDS011;9741;51.020;5.304;2022-10-31T11:34:27;4.38;;;1.90;;
19213;SDS011;9741;51.020;5.304;2022-10-31T11:37:04;24.63;;;2.53;;
19213;SDS011;9741;51.020;5.304;2022-10-31T11:39:40;4.40;;;2.65;;
19213;SDS011;9741;51.020;5.304;2022-10-31T11:42:09;2.15;;;1.58;;
19213;SDS011;9741;51.020;5.304;2022-10-31T11:44:36;5.10;;;2.00;;
19213;SDS011;9741;51.020;5.304;2022-10-31T11:47:09;4.93;;;1.73;;
19213;SDS011;9741;51.020;5.304;2022-10-31T11:49:43;2.53;;;2.20;;
19213;SDS011;9741;51.020;5.304;2022-10-31T11:52:15;2.78;;;2.05;;
19213;SDS011;9741;51.020;5.304;2022-10-31T11:54:48;7.90;;;2.92;;
19213;SDS011;9741;51.020;5.304;2022-10-31T11:57:24;10.50;;;1.85;;
19213;SDS011;9741;51.020;5.304;2022-10-31T11:59:55;3.95;;;1.95;;
19213;SDS011;9741;51.020;5.304;2022-10-31T12:02:24;1.63;;;1.52;;
19213;SDS011;9741;51.020;5.304;2022-10-31T12:05:00;2.35;;;1.98;;
19213;SDS011;9741;51.020;5.304;2022-10-31T12:07:31;3.85;;;2.40;;
19213;SDS011;9741;51.020;5.304;2022-10-31T12:09:59;5.90;;;2.72;;
19213;SDS011;9741;51.020;5.304;2022-10-31T12:12:42;12.10;;;2.25;;
19213;SDS011;9741;51.020;5.304;2022-10-31T12:15:26;9.05;;;3.20;;
19213;SDS011;9741;51.020;5.304;2022-10-31T12:18:11;4.30;;;1.50;;
19213;SDS011;9741;51.020;5.304;2022-10-31T12:20:56;13.73;;;2.78;;
19213;SDS011;9741;51.020;5.304;2022-10-31T12:23:37;23.83;;;5.18;;
19213;SDS011;9741;51.020;5.304;2022-10-31T12:26:21;3.28;;;2.13;;
19213;SDS011;9741;51.020;5.304;2022-10-31T12:28:59;7.95;;;2.17;;
19213;SDS011;9741;51.020;5.304;2022-10-31T12:31:43;3.88;;;2.13;;
19213;SDS011;9741;51.020;5.304;2022-10-31T12:34:33;2.63;;;1.95;;
19213;SDS011;9741;51.020;5.304;2022-10-31T12:37:33;3.42;;;2.40;;
19213;SDS011;9741;51.020;5.304;2022-10-31T12:40:24;5.55;;;2.80;;
19213;SDS011;9741;51.020;5.304;2022-10-31T12:43:22;4.13;;;1.45;;
19213;SDS011;9741;51.020;5.304;2022-10-31T12:46:13;2.53;;;1.65;;
19213;SDS011;9741;51.020;5.304;2022-10-31T12:49:04;2.40;;;2.20;;
19213;SDS011;9741;51.020;5.304;2022-10-31T12:51:44;4.85;;;2.63;;
19213;SDS011;9741;51.020;5.304;2022-10-31T12:54:28;4.25;;;2.88;;
19213;SDS011;9741;51.020;5.304;2022-10-31T12:57:09;1.77;;;1.67;;
19213;SDS011;9741;51.020;5.304;2022-10-31T12:59:44;6.35;;;3.08;;
19213;SDS011;9741;51.020;5.304;2022-10-31T13:02:16;4.43;;;1.95;;
19213;SDS011;9741;51.020;5.304;2022-10-31T13:04:50;3.92;;;2.35;;
19213;SDS011;9741;51.020;5.304;2022-10-31T13:07:22;7.32;;;2.58;;
19213;SDS011;9741;51.020;5.304;2022-10-31T13:09:58;6.05;;;2.22;;
19213;SDS011;9741;51.020;5.304;2022-10-31T13:12:30;1.50;;;1.40;;
19213;SDS011;9741;51.020;5.304;2022-10-31T13:15:01;6.47;;;2.47;;
19213;SDS011;9741;51.020;5.304;2022-10-31T13:17:33;3.92;;;3.03;;
19213;SDS011;9741;51.020;5.304;2022-10-31T13:20:13;5.82;;;3.30;;
19213;SDS011;9741;51.020;5.304;2022-10-31T13:22:45;5.40;;;2.55;;
19213;SDS011;9741;51.020;5.304;2022-10-31T13:25:17;8.68;;;3.33;;
19213;SDS011;9741;51.020;5.304;2022-10-31T13:27:49;5.32;;;2.60;;
19213;SDS011;9741;51.020;5.304;2022-10-31T13:30:20;4.10;;;3.20;;
19213;SDS011;9741;51.020;5.304;2022-10-31T13:32:50;4.22;;;2.60;;
19213;SDS011;9741;51.020;5.304;2022-10-31T13:35:23;6.85;;;3.28;;
19213;SDS011;9741;51.020;5.304;2022-10-31T13:37:57;6.63;;;3.13;;
19213;SDS011;9741;51.020;5.304;2022-10-31T13:40:35;6.63;;;3.30;;
19213;SDS011;9741;51.020;5.304;2022-10-31T13:43:11;4.00;;;2.58;;
19213;SDS011;9741;51.020;5.304;2022-10-31T13:45:47;5.25;;;3.63;;
19213;SDS011;9741;51.020;5.304;2022-10-31T13:48:33;8.10;;;2.83;;
19213;SDS011;9741;51.020;5.304;2022-10-31T13:51:02;2.67;;;2.35;;
19213;SDS011;9741;51.020;5.304;2022-10-31T13:53:36;6.47;;;2.78;;
19213;SDS011;9741;51.020;5.304;2022-10-31T13:56:13;11.07;;;3.38;;
19213;SDS011;9741;51.020;5.304;2022-10-31T13:59:04;4.50;;;2.83;;
19213;SDS011;9741;51.020;5.304;2022-10-31T14:01:48;8.07;;;2.92;;
19213;SDS011;9741;51.020;5.304;2022-10-31T14:04:18;12.95;;;5.07;;
19213;SDS011;9741;51.020;5.304;2022-10-31T14:06:49;8.13;;;3.42;;
19213;SDS011;9741;51.020;5.304;2022-10-31T14:09:24;6.35;;;3.20;;
19213;SDS011;9741;51.020;5.304;2022-10-31T14:11:55;6.47;;;2.30;;
19213;SDS011;9741;51.020;5.304;2022-10-31T14:14:26;2.25;;;1.80;;
19213;SDS011;9741;51.020;5.304;2022-10-31T14:17:17;3.75;;;2.78;;
19213;SDS011;9741;51.020;5.304;2022-10-31T14:20:21;6.50;;;2.60;;
19213;SDS011;9741;51.020;5.304;2022-10-31T14:29:01;11.35;;;2.60;;
19213;SDS011;9741;51.020;5.304;2022-10-31T14:31:44;5.05;;;2.97;;
19213;SDS011;9741;51.020;5.304;2022-10-31T14:34:21;4.22;;;3.08;;
19213;SDS011;9741;51.020;5.304;2022-10-31T14:37:03;4.90;;;2.85;;
19213;SDS011;9741;51.020;5.304;2022-10-31T14:39:58;8.50;;;4.13;;
19213;SDS011;9741;51.020;5.304;2022-10-31T14:43:08;5.57;;;2.47;;
19213;SDS011;9741;51.020;5.304;2022-10-31T14:46:16;5.68;;;2.70;;
19213;SDS011;9741;51.020;5.304;2022-10-31T14:49:00;5.45;;;3.22;;
19213;SDS011;9741;51.020;5.304;2022-10-31T14:52:11;5.03;;;3.25;;
19213;SDS011;9741;51.020;5.304;2022-10-31T14:54:42;3.95;;;2.65;;
19213;SDS011;9741;51.020;5.304;2022-10-31T14:57:19;4.20;;;2.60;;
19213;SDS011;9741;51.020;5.304;2022-10-31T14:59:49;11.00;;;3.08;;
19213;SDS011;9741;51.020;5.304;2022-10-31T15:02:23;6.28;;;2.92;;
19213;SDS011;9741;51.020;5.304;2022-10-31T15:04:53;4.75;;;3.03;;
19213;SDS011;9741;51.020;5.304;2022-10-31T15:07:24;3.08;;;2.08;;
19213;SDS011;9741;51.020;5.304;2022-10-31T15:09:55;4.03;;;2.55;;
19213;SDS011;9741;51.020;5.304;2022-10-31T15:12:25;3.40;;;1.88;;
19213;SDS011;9741;51.020;5.304;2022-10-31T15:14:54;22.48;;;3.05;;
19213;SDS011;9741;51.020;5.304;2022-10-31T15:17:25;8.50;;;3.38;;
19213;SDS011;9741;51.020;5.304;2022-10-31T15:19:53;14.07;;;3.08;;
19213;SDS011;9741;51.020;5.304;2022-10-31T15:22:22;2.78;;;2.08;;
19213;SDS011;9741;51.020;5.304;2022-10-31T15:24:51;6.55;;;2.45;;
19213;SDS011;9741;51.020;5.304;2022-10-31T15:27:21;5.35;;;2.63;;
19213;SDS011;9741;51.020;5.304;2022-10-31T15:29:50;8.43;;;2.58;;
19213;SDS011;9741;51.020;5.304;2022-10-31T15:32:19;2.78;;;2.00;;
19213;SDS011;9741;51.020;5.304;2022-10-31T15:34:50;4.25;;;2.28;;
19213;SDS011;9741;51.020;5.304;2022-10-31T15:37:19;10.32;;;3.35;;
19213;SDS011;9741;51.020;5.304;2022-10-31T15:39:50;8.27;;;3.42;;